Time;durP1;ratioP1;P1;durP2;ratioP2;P2;SDS_P1;SDS_P2;PMS_P1;PMS_P2;Temp;Humidity;BMP_temperature;BMP_pressure;BME280_temperature;BME280_humidity;BME280_pressure;Samples;Min_cycle;Max_cycle;Signal;HPM_P1;HPM_P2
2022/03/04 00:00:50;;;;;;;28.88;13.43;;;;;;;;;;5072161;28;20027;-54
2022/03/04 00:03:16;;;;;;;28.52;14.38;;;;;;;;;;5071774;28;20108;-53
2022/03/04 00:05:43;;;;;;;29.75;14.05;;;;;;;;;;5072408;28;20449;-56
2022/03/04 00:08:09;;;;;;;28.02;13.27;;;;;;;;;;5054421;28;20396;-52
2022/03/04 00:10:36;;;;;;;23.98;12.23;;;;;;;;;;5073062;28;20027;-57
2022/03/04 00:13:05;;;;;;;26.52;12.57;;;;;;;;;;5072835;28;20021;-55
2022/03/04 00:15:31;;;;;;;28.05;13.73;;;;;;;;;;5072744;28;20056;-54
2022/03/04 00:17:59;;;;;;;26.55;12.80;;;;;;;;;;5071997;28;20028;-55
2022/03/04 00:20:25;;;;;;;25.48;13.38;;;;;;;;;;5071324;28;20052;-53
2022/03/04 00:22:51;;;;;;;34.25;14.00;;;;;;;;;;5071433;28;20103;-54
2022/03/04 00:25:19;;;;;;;28.65;13.75;;;;;;;;;;5071275;28;20020;-54
2022/03/04 00:27:45;;;;;;;25.65;13.68;;;;;;;;;;5071156;28;20108;-54
2022/03/04 00:30:12;;;;;;;29.48;13.55;;;;;;;;;;5069526;28;20029;-52
2022/03/04 00:32:39;;;;;;;29.88;13.63;;;;;;;;;;5071769;28;20021;-54
2022/03/04 00:35:05;;;;;;;25.30;12.85;;;;;;;;;;5053060;28;20059;-54
2022/03/04 00:37:31;;;;;;;29.17;13.07;;;;;;;;;;5071739;28;20102;-55
2022/03/04 00:39:57;;;;;;;28.65;13.15;;;;;;;;;;5053528;28;20074;-57
2022/03/04 00:42:23;;;;;;;28.05;12.85;;;;;;;;;;5071298;28;20068;-53
2022/03/04 00:44:49;;;;;;;31.17;13.35;;;;;;;;;;5071312;28;20044;-52
2022/03/04 00:47:15;;;;;;;25.67;12.90;;;;;;;;;;5053584;28;20051;-54
2022/03/04 00:49:41;;;;;;;26.15;13.15;;;;;;;;;;5071374;28;20032;-58
2022/03/04 00:52:07;;;;;;;31.88;14.50;;;;;;;;;;5048252;28;20035;-59
2022/03/04 00:54:33;;;;;;;28.48;14.30;;;;;;;;;;5034693;28;20112;-58
2022/03/04 00:56:59;;;;;;;27.80;13.75;;;;;;;;;;5053694;28;20546;-56
2022/03/04 00:59:25;;;;;;;29.83;14.32;;;;;;;;;;5053713;28;20028;-55
2022/03/04 01:01:51;;;;;;;25.33;12.55;;;;;;;;;;5055222;28;20041;-52
2022/03/04 01:04:17;;;;;;;31.38;15.45;;;;;;;;;;5036031;28;20120;-55
2022/03/04 01:06:43;;;;;;;32.40;14.88;;;;;;;;;;5053835;28;20033;-53
2022/03/04 01:09:10;;;;;;;30.33;13.55;;;;;;;;;;5053735;28;20029;-51
2022/03/04 01:11:37;;;;;;;28.05;14.68;;;;;;;;;;5053739;28;20072;-55
2022/03/04 01:14:03;;;;;;;27.23;13.00;;;;;;;;;;5053690;28;20021;-55
2022/03/04 01:16:29;;;;;;;26.73;13.10;;;;;;;;;;5054018;28;20033;-56
2022/03/04 01:18:55;;;;;;;29.00;13.95;;;;;;;;;;5053464;28;20021;-53
2022/03/04 01:21:21;;;;;;;30.15;14.63;;;;;;;;;;5053625;28;20025;-55
2022/03/04 01:23:47;;;;;;;27.40;13.63;;;;;;;;;;5053607;28;20021;-54
2022/03/04 01:26:13;;;;;;;26.38;13.82;;;;;;;;;;5052865;28;20100;-57
2022/03/04 01:28:39;;;;;;;25.77;12.88;;;;;;;;;;5035661;28;20120;-55
2022/03/04 01:31:05;;;;;;;26.83;13.85;;;;;;;;;;5053038;28;20025;-56
2022/03/04 01:33:31;;;;;;;28.80;14.20;;;;;;;;;;5053559;28;20072;-51
2022/03/04 01:35:57;;;;;;;27.58;12.77;;;;;;;;;;5035772;28;20025;-53
2022/03/04 01:38:23;;;;;;;26.38;14.15;;;;;;;;;;5053450;28;20392;-53
2022/03/04 01:40:49;;;;;;;28.80;14.68;;;;;;;;;;5053124;28;20126;-50
2022/03/04 01:43:15;;;;;;;31.05;14.65;;;;;;;;;;5052963;28;20118;-50
2022/03/04 01:45:41;;;;;;;29.48;13.45;;;;;;;;;;5053060;28;20025;-52
2022/03/04 01:48:07;;;;;;;25.92;12.95;;;;;;;;;;5053061;28;20465;-51
2022/03/04 01:50:33;;;;;;;33.28;16.40;;;;;;;;;;5052863;28;20029;-56
2022/03/04 01:52:59;;;;;;;28.38;13.30;;;;;;;;;;5052819;28;20044;-54
2022/03/04 01:55:25;;;;;;;28.58;13.70;;;;;;;;;;5052763;28;20044;-53
2022/03/04 01:57:51;;;;;;;29.80;15.57;;;;;;;;;;5052814;28;20074;-52
2022/03/04 02:00:17;;;;;;;28.63;14.23;;;;;;;;;;5052672;28;20465;-52
2022/03/04 02:02:43;;;;;;;29.52;14.85;;;;;;;;;;5052452;28;20037;-56
2022/03/04 02:05:13;;;;;;;30.63;14.45;;;;;;;;;;5052784;28;20021;-53
2022/03/04 02:07:39;;;;;;;29.42;14.38;;;;;;;;;;5052654;28;20074;-54
2022/03/04 02:10:06;;;;;;;32.58;16.08;;;;;;;;;;5052520;28;20362;-51
2022/03/04 02:12:31;;;;;;;31.45;15.52;;;;;;;;;;5052426;28;20032;-50
2022/03/04 02:14:57;;;;;;;31.60;15.18;;;;;;;;;;5052460;28;20418;-51
2022/03/04 02:17:23;;;;;;;32.00;15.27;;;;;;;;;;5052546;28;20108;-52
2022/03/04 02:19:53;;;;;;;37.70;16.42;;;;;;;;;;5052430;28;20025;-51
2022/03/04 02:22:19;;;;;;;31.67;14.95;;;;;;;;;;5034492;28;20021;-51
2022/03/04 02:24:45;;;;;;;29.90;14.75;;;;;;;;;;5052336;28;20500;-55
2022/03/04 02:27:11;;;;;;;31.10;15.68;;;;;;;;;;5052182;28;20029;-51
2022/03/04 02:29:37;;;;;;;35.42;16.55;;;;;;;;;;5052325;28;20032;-57
2022/03/04 02:32:04;;;;;;;33.67;16.38;;;;;;;;;;5052102;28;20044;-52
2022/03/04 02:34:30;;;;;;;33.53;16.67;;;;;;;;;;5052327;28;20021;-54
2022/03/04 02:36:57;;;;;;;30.55;15.10;;;;;;;;;;5052237;28;20025;-57
2022/03/04 02:39:23;;;;;;;33.03;17.42;;;;;;;;;;5051978;28;20017;-50
2022/03/04 02:41:49;;;;;;;31.52;15.85;;;;;;;;;;5052009;28;20025;-52
2022/03/04 02:44:15;;;;;;;34.45;16.58;;;;;;;;;;5052015;28;20021;-54
2022/03/04 02:46:42;;;;;;;34.05;17.42;;;;;;;;;;5052089;28;20029;-52
2022/03/04 02:49:08;;;;;;;32.88;14.43;;;;;;;;;;5051785;28;20187;-53
2022/03/04 02:51:34;;;;;;;32.05;16.80;;;;;;;;;;5051961;28;20025;-54
2022/03/04 02:54:00;;;;;;;31.30;15.18;;;;;;;;;;5051091;28;20025;-52
2022/03/04 02:56:26;;;;;;;33.97;17.42;;;;;;;;;;5052233;28;20108;-57
2022/03/04 02:58:52;;;;;;;34.65;16.70;;;;;;;;;;5052555;28;20064;-54
2022/03/04 03:01:18;;;;;;;34.90;15.57;;;;;;;;;;5052194;28;20045;-56
2022/03/04 03:03:44;;;;;;;35.15;18.00;;;;;;;;;;5052136;28;20473;-53
2022/03/04 03:06:10;;;;;;;31.60;15.77;;;;;;;;;;5052051;28;20108;-52
2022/03/04 03:08:36;;;;;;;36.08;16.42;;;;;;;;;;5052139;28;20033;-55
2022/03/04 03:11:03;;;;;;;30.20;16.15;;;;;;;;;;5033647;28;20028;-56
2022/03/04 03:13:29;;;;;;;35.53;15.55;;;;;;;;;;5033858;28;20048;-53
2022/03/04 03:15:55;;;;;;;35.30;18.38;;;;;;;;;;5051569;28;20065;-54
2022/03/04 03:18:21;;;;;;;31.85;15.90;;;;;;;;;;5033870;28;20558;-54
2022/03/04 03:20:47;;;;;;;37.25;17.33;;;;;;;;;;5051458;28;20037;-52
2022/03/04 03:23:13;;;;;;;35.55;20.88;;;;;;;;;;5051529;28;20461;-57
2022/03/04 03:25:39;;;;;;;36.30;17.70;;;;;;;;;;5051477;28;20064;-52
2022/03/04 03:28:05;;;;;;;39.38;16.90;;;;;;;;;;5033756;28;20053;-55
2022/03/04 03:30:32;;;;;;;34.42;18.42;;;;;;;;;;5051534;28;20076;-55
2022/03/04 03:32:58;;;;;;;34.25;16.52;;;;;;;;;;5051677;28;20394;-52
2022/03/04 03:35:25;;;;;;;36.38;18.85;;;;;;;;;;5051493;28;20112;-55
2022/03/04 03:37:51;;;;;;;38.08;18.23;;;;;;;;;;5051680;28;20021;-54
2022/03/04 03:40:18;;;;;;;35.17;18.13;;;;;;;;;;5051648;28;20040;-50
2022/03/04 03:42:44;;;;;;;37.08;17.58;;;;;;;;;;5051771;28;20025;-52
2022/03/04 03:45:11;;;;;;;35.08;16.83;;;;;;;;;;5051571;28;20036;-53
2022/03/04 03:47:38;;;;;;;39.58;19.25;;;;;;;;;;5033897;28;20021;-54
2022/03/04 03:50:05;;;;;;;40.92;19.38;;;;;;;;;;5051369;28;20053;-53
2022/03/04 03:52:31;;;;;;;37.92;17.88;;;;;;;;;;5051271;28;20021;-50
2022/03/04 03:54:57;;;;;;;33.83;18.65;;;;;;;;;;5051430;28;20033;-53
2022/03/04 03:57:23;;;;;;;41.28;19.25;;;;;;;;;;5051640;28;20078;-51
2022/03/04 03:59:49;;;;;;;41.25;19.88;;;;;;;;;;5051308;28;20017;-53
2022/03/04 04:02:15;;;;;;;36.45;17.35;;;;;;;;;;5051085;28;20033;-50
2022/03/04 04:04:41;;;;;;;40.60;19.35;;;;;;;;;;5052462;28;20061;-53
2022/03/04 04:07:12;;;;;;;42.38;19.55;;;;;;;;;;5037048;28;20029;-53
2022/03/04 04:09:38;;;;;;;34.50;17.38;;;;;;;;;;5055070;28;20040;-52
2022/03/04 04:12:04;;;;;;;40.60;19.92;;;;;;;;;;5055880;28;20032;-56
2022/03/04 04:14:30;;;;;;;40.03;19.35;;;;;;;;;;5037661;28;20027;-57
2022/03/04 04:16:56;;;;;;;39.95;19.13;;;;;;;;;;5055407;28;20036;-55
2022/03/04 04:19:23;;;;;;;43.40;19.33;;;;;;;;;;5054855;28;20021;-55
2022/03/04 04:21:50;;;;;;;41.33;20.67;;;;;;;;;;5054951;28;20033;-56
2022/03/04 04:24:16;;;;;;;36.70;18.40;;;;;;;;;;5054816;28;20155;-53
2022/03/04 04:26:42;;;;;;;43.42;21.67;;;;;;;;;;5054816;28;20025;-53
2022/03/04 04:29:08;;;;;;;37.67;17.98;;;;;;;;;;5054690;28;20029;-52
2022/03/04 04:31:35;;;;;;;37.50;19.27;;;;;;;;;;5054443;28;20102;-52
2022/03/04 04:34:01;;;;;;;39.60;20.40;;;;;;;;;;5054429;28;20092;-55
2022/03/04 04:36:28;;;;;;;42.67;21.38;;;;;;;;;;5054892;28;20413;-55
2022/03/04 04:38:54;;;;;;;41.80;20.63;;;;;;;;;;5054433;28;20121;-53
2022/03/04 04:41:20;;;;;;;40.60;21.35;;;;;;;;;;5054738;28;20061;-53
2022/03/04 04:43:46;;;;;;;43.58;20.10;;;;;;;;;;5054583;28;20342;-53
2022/03/04 04:46:12;;;;;;;41.20;19.92;;;;;;;;;;5054422;28;20035;-52
2022/03/04 04:48:39;;;;;;;40.25;19.90;;;;;;;;;;5054198;28;20112;-50
2022/03/04 04:51:05;;;;;;;48.80;21.30;;;;;;;;;;5054188;28;20079;-54
2022/03/04 04:53:31;;;;;;;40.53;18.67;;;;;;;;;;5054433;28;20025;-54
2022/03/04 04:55:58;;;;;;;43.53;18.92;;;;;;;;;;5054013;28;20022;-54
2022/03/04 04:58:24;;;;;;;44.42;21.75;;;;;;;;;;5054064;28;20029;-56
2022/03/04 05:00:56;;;;;;;39.05;20.20;;;;;;;;;;5054032;28;20049;-53
2022/03/04 05:03:22;;;;;;;42.42;19.35;;;;;;;;;;5054087;28;20040;-52
2022/03/04 05:05:48;;;;;;;47.45;20.83;;;;;;;;;;5053889;28;20481;-55
2022/03/04 05:08:15;;;;;;;37.33;18.52;;;;;;;;;;5053893;28;20100;-53
2022/03/04 05:10:41;;;;;;;43.22;19.90;;;;;;;;;;5053791;28;20039;-52
2022/03/04 05:13:07;;;;;;;41.78;21.17;;;;;;;;;;5053694;28;20028;-55
2022/03/04 05:15:33;;;;;;;39.95;18.92;;;;;;;;;;5053705;28;20029;-55
2022/03/04 05:17:59;;;;;;;39.65;19.20;;;;;;;;;;5035264;28;20473;-54
2022/03/04 05:20:25;;;;;;;43.45;20.67;;;;;;;;;;5053424;28;20032;-53
2022/03/04 05:22:51;;;;;;;42.38;20.30;;;;;;;;;;5053812;28;20024;-52
2022/03/04 05:25:17;;;;;;;44.30;19.85;;;;;;;;;;5053515;28;20056;-54
2022/03/04 05:27:43;;;;;;;48.17;20.42;;;;;;;;;;5053483;28;20057;-54
2022/03/04 05:30:10;;;;;;;48.10;22.30;;;;;;;;;;5053204;28;20419;-57
2022/03/04 05:32:36;;;;;;;37.75;19.55;;;;;;;;;;5035359;28;20032;-55
2022/03/04 05:35:02;;;;;;;45.42;21.73;;;;;;;;;;5053339;28;20461;-56
2022/03/04 05:37:28;;;;;;;40.85;20.77;;;;;;;;;;5053311;28;20025;-56
2022/03/04 05:39:53;;;;;;;48.05;22.90;;;;;;;;;;5053267;28;20027;-53
2022/03/04 05:42:20;;;;;;;37.80;19.35;;;;;;;;;;5035160;28;20470;-56
2022/03/04 05:44:46;;;;;;;45.80;20.98;;;;;;;;;;5035023;28;20509;-53
2022/03/04 05:47:12;;;;;;;39.95;20.17;;;;;;;;;;5053051;28;20033;-51
2022/03/04 05:49:38;;;;;;;41.55;20.02;;;;;;;;;;5053008;28;20025;-53
2022/03/04 05:52:04;;;;;;;45.85;19.05;;;;;;;;;;5052887;28;20378;-53
2022/03/04 05:54:30;;;;;;;40.45;19.85;;;;;;;;;;5052873;28;20043;-53
2022/03/04 05:56:56;;;;;;;46.25;21.63;;;;;;;;;;5052911;28;20032;-54
2022/03/04 05:59:22;;;;;;;41.28;20.65;;;;;;;;;;5052772;28;20024;-51
2022/03/04 06:01:48;;;;;;;42.38;20.55;;;;;;;;;;5052603;28;20127;-54
2022/03/04 06:04:14;;;;;;;40.53;20.13;;;;;;;;;;5052660;28;20075;-55
2022/03/04 06:06:40;;;;;;;45.30;23.85;;;;;;;;;;5052662;28;20128;-54
2022/03/04 06:09:06;;;;;;;42.88;21.40;;;;;;;;;;5051887;28;20036;-52
2022/03/04 06:11:32;;;;;;;47.92;22.48;;;;;;;;;;5034250;28;20027;-55
2022/03/04 06:13:58;;;;;;;44.63;20.77;;;;;;;;;;5052481;28;20442;-52
2022/03/04 06:16:24;;;;;;;44.47;21.50;;;;;;;;;;5052409;28;20025;-50
2022/03/04 06:18:51;;;;;;;47.40;20.15;;;;;;;;;;5052056;28;20469;-53
2022/03/04 06:21:17;;;;;;;50.40;22.15;;;;;;;;;;5034372;28;20025;-52
2022/03/04 06:23:43;;;;;;;45.95;21.42;;;;;;;;;;5052122;28;20107;-50
2022/03/04 06:26:09;;;;;;;43.08;21.45;;;;;;;;;;5034156;28;20451;-51
2022/03/04 06:28:35;;;;;;;43.45;21.05;;;;;;;;;;5051350;28;20025;-53
2022/03/04 06:31:01;;;;;;;44.55;22.45;;;;;;;;;;5055186;28;20025;-52
2022/03/04 06:33:30;;;;;;;45.45;20.45;;;;;;;;;;5052076;28;20493;-54
2022/03/04 06:35:56;;;;;;;49.25;23.40;;;;;;;;;;5051944;28;20025;-54
2022/03/04 06:38:23;;;;;;;42.47;21.23;;;;;;;;;;5051893;28;20017;-52
2022/03/04 06:40:50;;;;;;;45.10;22.33;;;;;;;;;;5051388;28;20029;-52
2022/03/04 06:43:16;;;;;;;46.53;23.33;;;;;;;;;;5051595;28;20572;-51
2022/03/04 06:45:45;;;;;;;47.33;22.85;;;;;;;;;;5032621;28;20029;-55
2022/03/04 06:48:12;;;;;;;48.25;23.85;;;;;;;;;;5051666;28;20037;-51
2022/03/04 06:50:38;;;;;;;54.47;24.83;;;;;;;;;;5051399;28;20028;-53
2022/03/04 06:53:04;;;;;;;42.65;21.90;;;;;;;;;;5051676;28;20021;-55
2022/03/04 06:55:31;;;;;;;47.83;21.90;;;;;;;;;;5051039;28;20025;-57
2022/03/04 06:57:57;;;;;;;47.13;21.10;;;;;;;;;;5033588;28;20074;-53
2022/03/04 07:00:24;;;;;;;44.58;22.65;;;;;;;;;;5050164;28;20551;-57
2022/03/04 07:02:50;;;;;;;45.43;23.07;;;;;;;;;;5034906;28;20086;-54
2022/03/04 07:05:16;;;;;;;39.97;19.98;;;;;;;;;;5051078;28;20107;-54
2022/03/04 07:07:43;;;;;;;42.00;21.83;;;;;;;;;;5051371;28;20089;-57
2022/03/04 07:10:08;;;;;;;44.33;20.88;;;2.20;99.90;;;;;;5050715;28;20035;-54
2022/03/04 07:12:38;;;;;;;42.67;21.33;;;-0.40;99.90;;;;;;5050766;28;20111;-53
2022/03/04 07:15:05;;;;;;;44.10;20.75;;;-0.40;99.90;;;;;;5050555;28;20512;-54
2022/03/04 07:17:30;;;;;;;40.58;19.75;;;-0.40;99.90;;;;;;5051129;28;20507;-51
2022/03/04 07:19:56;;;;;;;40.03;20.08;;;-0.40;99.90;;;;;;5050697;28;20203;-54
2022/03/04 07:22:21;;;;;;;38.92;20.08;;;-0.40;99.90;;;;;;5051120;28;20045;-54
2022/03/04 07:24:47;;;;;;;40.95;22.75;;;-0.30;99.90;;;;;;5050689;28;20112;-53
2022/03/04 07:27:13;;;;;;;38.08;19.40;;;-0.20;99.90;;;;;;5031908;28;20033;-52
2022/03/04 07:29:38;;;;;;;45.75;20.27;;;-0.20;99.90;;;;;;5050394;28;20393;-54
2022/03/04 07:32:04;;;;;;;43.40;20.60;;;-0.10;99.90;;;;;;5051567;28;20032;-51
2022/03/04 07:34:30;;;;;;;35.47;17.77;;;-0.10;99.90;;;;;;5050793;28;20100;-56
2022/03/04 07:36:55;;;;;;;42.20;18.92;;;0.00;99.90;;;;;;5051466;28;20079;-54
2022/03/04 07:39:21;;;;;;;40.53;20.70;;;0.00;99.90;;;;;;5051560;28;20025;-56
2022/03/04 07:41:51;;;;;;;38.35;19.02;;;0.10;99.90;;;;;;5055476;28;20511;-56
2022/03/04 07:44:17;;;;;;;35.08;17.88;;;0.10;99.90;;;;;;5036231;28;20477;-52
2022/03/04 07:46:43;;;;;;;42.70;20.23;;;;;;;;;;5055044;28;20057;-57
2022/03/04 07:49:09;;;;;;;35.88;19.27;;;;;;;;;;5054613;28;20083;-57
2022/03/04 07:51:35;;;;;;;38.50;18.73;;;;;;;;;;5036801;28;20033;-54
2022/03/04 07:54:01;;;;;;;33.83;18.17;;;;;;;;;;5054695;28;20021;-57
2022/03/04 07:56:27;;;;;;;37.78;18.02;;;;;;;;;;5054660;28;20047;-54
2022/03/04 07:58:53;;;;;;;34.80;17.90;;;;;;;;;;5053973;28;20496;-56
2022/03/04 08:01:19;;;;;;;35.95;18.15;;;;;;;;;;5054223;28;20120;-51
2022/03/04 08:03:46;;;;;;;34.63;17.52;;;;;;;;;;5055044;28;20029;-54
2022/03/04 08:06:12;;;;;;;35.10;17.50;;;;;;;;;;5055380;28;20052;-57
2022/03/04 08:08:38;;;;;;;36.30;17.45;;;;;;;;;;5055513;28;20025;-55
2022/03/04 08:11:04;;;;;;;35.67;18.83;;;;;;;;;;5055746;28;20028;-55
2022/03/04 08:13:31;;;;;;;35.85;18.15;;;;;;;;;;5055882;28;20024;-57
2022/03/04 08:15:57;;;;;;;35.22;18.08;;;;;;;;;;5054367;28;20052;-55
2022/03/04 08:18:23;;;;;;;36.40;17.00;;;;;;;;;;5037012;28;20025;-55
2022/03/04 08:20:49;;;;;;;36.60;18.77;;;;;;;;;;5054340;28;20029;-54
2022/03/04 08:23:15;;;;;;;36.20;17.25;;;;;;;;;;5054690;28;20025;-54
2022/03/04 08:25:43;;;;;;;32.75;17.70;;;;;;;;;;5054244;28;20048;-55
2022/03/04 08:28:09;;;;;;;39.83;17.10;;;;;;;;;;5054604;28;20082;-54
2022/03/04 08:30:36;;;;;;;35.75;17.77;;;;;;;;;;5053591;28;20317;-52
2022/03/04 08:33:02;;;;;;;37.55;18.05;;;;;;;;;;5054511;28;20079;-53
2022/03/04 08:35:28;;;;;;;35.97;17.15;;;;;;;;;;5054705;28;20404;-57
2022/03/04 08:37:54;;;;;;;38.28;16.80;;;;;;;;;;5054832;28;20021;-53
2022/03/04 08:40:20;;;;;;;37.17;17.13;;;;;;;;;;5037026;28;20017;-54
2022/03/04 08:42:46;;;;;;;32.30;15.18;;;;;;;;;;5055254;28;20488;-59
2022/03/04 08:45:13;;;;;;;35.53;16.95;;;;;;;;;;5054028;28;20503;-54
2022/03/04 08:47:41;;;;;;;33.97;17.95;;;;;;;;;;5055669;28;20461;-56
2022/03/04 08:50:08;;;;;;;31.05;16.20;;;;;;;;;;5054854;28;20033;-57
2022/03/04 08:52:35;;;;;;;30.77;15.52;;;;;;;;;;5061192;28;20028;-53
2022/03/04 08:55:01;;;;;;;32.85;15.55;;;;;;;;;;5087643;28;20082;-54
2022/03/04 08:57:28;;;;;;;34.28;15.48;;;;;;;;;;5095981;28;20137;-53
2022/03/04 08:59:54;;;;;;;33.15;15.35;;;;;;;;;;5093869;28;20027;-51
2022/03/04 09:02:20;;;;;;;33.10;15.88;;;;;;;;;;5094705;28;20058;-53
2022/03/04 09:04:46;;;;;;;32.55;15.73;;;;;;;;;;5091630;28;20103;-56
2022/03/04 09:07:12;;;;;;;33.28;16.77;;;;;;;;;;5094262;28;20028;-52
2022/03/04 09:09:38;;;;;;;51.33;26.63;;;;;;;;;;5093984;28;20065;-59
2022/03/04 09:12:04;;;;;;;46.42;19.10;;;;;;;;;;5093720;28;20047;-57
2022/03/04 09:14:30;;;;;;;34.47;15.70;;;;;;;;;;5093083;28;20100;-61
2022/03/04 09:16:57;;;;;;;33.60;17.23;;;;;;;;;;5093562;28;20021;-62
2022/03/04 09:19:23;;;;;;;33.15;15.50;;;;;;;;;;5075246;28;20400;-62
2022/03/04 09:21:49;;;;;;;31.88;14.77;;;;;;;;;;5075467;28;20030;-61
2022/03/04 09:24:15;;;;;;;33.75;16.80;;;;;;;;;;5093336;28;20031;-62
2022/03/04 09:26:41;;;;;;;29.90;15.40;;;;;;;;;;5075531;28;20028;-58
2022/03/04 09:29:08;;;;;;;34.25;15.73;;;;;;;;;;5093055;28;20440;-61
2022/03/04 09:31:34;;;;;;;38.20;18.30;;;;;;;;;;5093475;28;20024;-60
2022/03/04 09:34:00;;;;;;;35.70;17.10;;;;;;;;;;5074996;28;20047;-61
2022/03/04 09:36:26;;;;;;;31.23;15.52;;;0.20;99.90;;;;;;5092699;28;20024;-62
2022/03/04 09:38:51;;;;;;;33.13;15.20;;;2.90;99.90;;;;;;5092973;28;20106;-61
2022/03/04 09:41:18;;;;;;;34.85;16.17;;;2.90;99.90;;;;;;5093212;28;20480;-61
2022/03/04 09:43:44;;;;;;;32.42;16.08;;;2.90;99.90;;;;;;5092858;28;20102;-62
2022/03/04 09:46:13;;;;;;;32.15;17.48;;;2.90;99.90;;;;;;5093104;28;20433;-61
2022/03/04 09:48:43;;;;;;;32.20;15.98;;;3.10;99.90;;;;;;5093111;28;20024;-61
2022/03/04 09:51:09;;;;;;;32.53;15.88;;;3.20;99.90;;;;;;5092407;28;20035;-63
2022/03/04 09:53:35;;;;;;;28.13;15.60;;;3.20;99.90;;;;;;5092815;28;20099;-62
2022/03/04 09:56:01;;;;;;;30.40;16.08;;;3.30;99.90;;;;;;5074561;28;20020;-60
2022/03/04 09:58:27;;;;;;;34.47;17.30;;;3.40;99.90;;;;;;5092503;28;20035;-61
2022/03/04 10:00:53;;;;;;;30.25;15.98;;;3.50;99.90;;;;;;5090961;28;20028;-62
2022/03/04 10:03:41;;;;;;;39.53;16.38;;;3.50;99.90;;;;;;5075577;28;20070;-58
2022/03/04 10:06:06;;;;;;;;;;;3.40;99.90;;;;;;5072129;28;20025;-62
2022/03/04 10:08:47;;;;;;;30.88;15.60;;;3.60;99.90;;;;;;5070649;28;19931;-59
2022/03/04 10:11:23;;;;;;;29.65;16.23;;;3.80;99.90;;;;;;5071196;28;20389;-60
2022/03/04 10:13:54;;;;;;;31.00;15.90;;;3.80;99.90;;;;;;5071652;28;20074;-61
2022/03/04 10:16:32;;;;;;;30.75;17.20;;;3.90;99.90;;;;;;5072257;28;20033;-57
2022/03/04 10:19:19;;;;;;;29.25;16.52;;;4.10;99.90;;;;;;5071669;28;20107;-60
2022/03/04 10:21:55;;;;;;;31.00;15.30;;;4.20;99.90;;;;;;5072148;28;20031;-57
2022/03/04 10:24:36;;;;;;;28.77;15.35;;;4.40;99.90;;;;;;5071591;28;20036;-58
2022/03/04 10:27:04;;;;;;;28.05;14.98;;;4.20;99.90;;;;;;5072227;28;20032;-61
2022/03/04 10:29:34;;;;;;;31.33;17.02;;;4.30;99.90;;;;;;5071534;28;20082;-64
2022/03/04 10:32:05;;;;;;;32.58;16.30;;;4.50;99.90;;;;;;5072011;28;20492;-61
2022/03/04 10:34:54;;;;;;;30.45;15.75;;;4.60;99.90;;;;;;5071545;28;20033;-61
2022/03/04 10:37:43;;;;;;;31.40;16.42;;;4.40;99.90;;;;;;5071728;28;20020;-61
2022/03/04 10:40:43;;;;;;;30.83;15.65;;;4.60;99.90;;;;;;5071728;28;20020;-63
2022/03/04 10:43:10;;;;;;;28.95;17.05;;;4.80;99.90;;;;;;5056626;28;20085;-60
2022/03/04 10:45:40;;;;;;;30.63;15.88;;;4.70;99.90;;;;;;5072028;28;20046;-65
2022/03/04 10:48:19;;;;;;;32.50;15.90;;;4.70;99.90;;;;;;5071983;28;20563;-64
2022/03/04 10:50:49;;;;;;;29.92;15.52;;;;;;;;;;5071032;28;20480;-65
2022/03/04 10:53:20;;;;;;;29.35;16.17;;;4.90;99.90;;;;;;5053702;28;20024;-65
2022/03/04 10:55:56;;;;;;;31.58;16.63;;;;;;;;;;5053379;28;20025;-63
2022/03/04 10:58:27;;;;;;;30.02;16.15;;;5.00;99.90;;;;;;5071088;28;20028;-56
2022/03/04 11:01:32;;;;;;;28.83;14.85;;;5.40;99.90;;;;;;5071113;28;20031;-60
2022/03/04 11:03:58;;;;;;;35.95;15.48;;;5.20;99.90;;;;;;5053193;28;20064;-59
2022/03/04 11:06:25;;;;;;;32.15;16.08;;;5.30;99.90;;;;;;5053452;28;20137;-56
2022/03/04 11:08:51;;;;;;;29.95;15.82;;;5.40;99.90;;;;;;5070852;28;20126;-59
2022/03/04 11:11:16;;;;;;;30.33;15.55;;;5.60;99.90;;;;;;5071014;28;20025;-57
2022/03/04 11:13:42;;;;;;;31.17;16.88;;;;;;;;;;5070587;28;20044;-60
2022/03/04 11:16:09;;;;;;;29.48;15.52;;;5.80;99.90;;;;;;5071012;28;20094;-60
2022/03/04 11:18:35;;;;;;;32.67;16.27;;;6.90;99.90;;;;;;5071374;28;20031;-56
2022/03/04 11:21:04;;;;;;;30.50;15.63;;;7.20;99.90;;;;;;5071090;28;20074;-58
2022/03/04 11:23:35;;;;;;;33.40;16.73;;;8.20;99.90;;;;;;5053002;28;20082;-56
2022/03/04 11:26:16;;;;;;;30.25;17.17;;;9.10;99.10;;;;;;5070907;28;20029;-57
2022/03/04 11:28:44;;;;;;;27.15;16.65;;;10.20;97.20;;;;;;5071097;28;20564;-65
2022/03/04 11:31:12;;;;;;;27.48;15.93;;;10.80;95.50;;;;;;5070626;28;20027;-59
2022/03/04 11:33:58;;;;;;;27.83;16.58;;;11.80;93.10;;;;;;5070783;28;20024;-59
2022/03/04 11:36:26;;;;;;;29.48;16.63;;;12.60;90.70;;;;;;5070451;28;20071;-60
2022/03/04 11:38:53;;;;;;;28.53;17.43;;;12.80;86.60;;;;;;5070988;28;20027;-58
2022/03/04 11:41:30;;;;;;;31.27;18.42;;;12.90;85.40;;;;;;5071224;28;20025;-58
2022/03/04 11:43:58;;;;;;;27.40;17.10;;;12.90;84.80;;;;;;5071164;28;20032;-60
2022/03/04 11:46:25;;;;;;;27.00;17.00;;;11.90;83.70;;;;;;5071930;28;20392;-59
2022/03/04 11:49:23;;;;;;;26.45;17.67;;;12.50;85.30;;;;;;5053601;28;20024;-58
2022/03/04 11:52:07;;;;;;;26.85;18.17;;;12.80;81.80;;;;;;5070731;28;20032;-56
2022/03/04 11:54:35;;;;;;;30.13;19.45;;;12.30;81.40;;;;;;5070728;28;20024;-59
2022/03/04 11:57:20;;;;;;;26.80;17.33;;;13.00;80.90;;;;;;5070704;28;20388;-58
2022/03/04 12:00:00;;;;;;;26.88;17.75;;;13.60;78.80;;;;;;5052960;28;20466;-60
2022/03/04 12:02:28;;;;;;;29.38;19.60;;;14.50;77.50;;;;;;5070957;28;20036;-56
2022/03/04 12:05:13;;;;;;;29.90;18.83;;;14.60;75.90;;;;;;5070597;28;20031;-61
2022/03/04 12:07:43;;;;;;;29.38;19.95;;;14.60;74.40;;;;;;5070697;28;20454;-60
2022/03/04 12:10:10;;;;;;;27.15;19.63;;;14.40;73.10;;;;;;5070904;28;20029;-59
2022/03/04 12:12:38;;;;;;;27.40;18.75;;;14.40;71.70;;;;;;5070395;28;20033;-59
2022/03/04 12:15:16;;;;;;;28.70;20.43;;;15.20;73.20;;;;;;5070626;28;20417;-59
2022/03/04 12:17:59;;;;;;;28.75;19.10;;;16.10;72.60;;;;;;5071180;28;20027;-62
2022/03/04 12:20:57;;;;;;;25.77;18.30;;;16.80;66.80;;;;;;5070912;28;20035;-63
2022/03/04 12:23:36;;;;;;;29.40;19.92;;;15.60;67.70;;;;;;5070982;28;20094;-61
2022/03/04 12:26:01;;;;;;;28.30;19.02;;;16.00;68.10;;;;;;5070413;28;20421;-60
2022/03/04 12:28:33;;;;;;;27.08;19.38;;;17.20;65.00;;;;;;5074327;28;20100;-58
2022/03/04 12:31:01;;;;;;;27.98;18.88;;;17.00;64.50;;;;;;5074089;28;20024;-57
2022/03/04 12:33:28;;;;;;;28.20;19.63;;;17.60;63.60;;;;;;5074593;28;20042;-61
2022/03/04 12:35:57;;;;;;;31.95;19.88;;;18.50;62.20;;;;;;5055734;28;20031;-60
2022/03/04 12:38:31;;;;;;;26.45;19.02;;;19.10;61.00;;;;;;5074452;28;20086;-58
2022/03/04 12:40:58;;;;;;;26.23;19.10;;;18.30;59.80;;;;;;5055995;28;20498;-59
2022/03/04 12:43:24;;;;;;;25.92;19.95;;;18.10;59.40;;;;;;5074157;28;20037;-59
2022/03/04 12:45:51;;;;;;;27.00;19.88;;;18.20;58.20;;;;;;5073443;28;20078;-59
2022/03/04 12:48:18;;;;;;;26.67;18.55;;;18.60;58.80;;;;;;5055316;28;20492;-62
2022/03/04 12:50:43;;;;;;;25.35;19.02;;;17.70;57.00;;;;;;5073111;28;20166;-60
2022/03/04 12:53:23;;;;;;;26.92;19.45;;;17.70;58.50;;;;;;5073529;28;20096;-59
2022/03/04 12:55:55;;;;;;;25.95;17.95;;;17.60;56.70;;;;;;5073367;28;20035;-60
2022/03/04 12:58:48;;;;;;;26.20;18.35;;;18.60;55.80;;;;;;5055412;28;20029;-60
2022/03/04 13:04:01;;;;;;;25.65;19.15;;;18.00;57.50;;;;;;5029238;28;20057;-59
2022/03/04 13:06:29;;;;;;;27.75;19.17;;;16.90;59.60;;;;;;5031243;28;20059;-60
2022/03/04 13:08:58;;;;;;;30.25;19.65;;;17.30;58.90;;;;;;5032154;28;20033;-61
2022/03/04 13:11:28;;;;;;;;;;;17.00;58.50;;;;;;5031980;28;20119;-60
2022/03/04 13:14:02;;;;;;;27.52;19.40;;;17.20;58.10;;;;;;5032182;28;19913;-60
2022/03/04 13:16:42;;;;;;;26.55;19.27;;;17.50;57.80;;;;;;5032177;28;20438;-61
2022/03/04 13:19:19;;;;;;;28.58;19.23;;;17.10;57.00;;;;;;5031898;28;20028;-58
2022/03/04 13:21:45;;;;;;;25.80;18.08;;;17.50;59.00;;;;;;5032013;28;20048;-60
2022/03/04 13:24:32;;;;;;;27.13;18.13;;;18.20;56.90;;;;;;5031944;28;20597;-59
2022/03/04 13:26:59;;;;;;;27.73;19.23;;;18.50;55.60;;;;;;5030165;28;20033;-60
2022/03/04 13:29:31;;;;;;;24.55;18.25;;;18.70;55.20;;;;;;5030552;28;20025;-60
2022/03/04 13:32:08;;;;;;;27.30;18.95;;;19.50;53.90;;;;;;5031997;28;20064;-60
2022/03/04 13:34:34;;;;;;;28.15;19.15;;;19.50;53.10;;;;;;5031457;28;20497;-60
2022/03/04 13:37:24;;;;;;;23.15;16.25;;;19.80;53.40;;;;;;5029729;28;20030;-60
2022/03/04 13:40:01;;;;;;;23.48;15.95;;;20.20;51.80;;;;;;5031530;28;20018;-61
2022/03/04 13:42:28;;;;;;;25.40;16.80;;;20.20;50.30;;;;;;5034036;28;20036;-62
2022/03/04 13:45:00;;;;;;;24.83;17.85;;;20.10;50.50;;;;;;5032002;28;20032;-61
2022/03/04 13:47:31;;;;;;;25.35;17.77;;;19.70;51.00;;;;;;5031364;28;20030;-63